createdAt,value
2023-04-07T00:00:39.683Z,12.70
2023-04-07T00:03:21.888Z,11.10
2023-04-07T00:05:51.037Z,12.40
2023-04-07T00:08:20.110Z,10.60
2023-04-07T00:10:49.165Z,10.40
2023-04-07T00:13:18.498Z,11.60
2023-04-07T00:15:47.482Z,10.20
2023-04-07T00:18:16.398Z,17.90
2023-04-07T00:20:45.366Z,21.00
2023-04-07T00:23:14.592Z,21.50
2023-04-07T00:25:43.632Z,20.50
2023-04-07T00:28:12.927Z,15.00
2023-04-07T00:30:41.922Z,14.60
2023-04-07T00:33:10.973Z,16.00
2023-04-07T00:35:39.913Z,13.70
2023-04-07T00:38:08.954Z,16.00
2023-04-07T00:40:37.877Z,12.50
2023-04-07T00:43:06.724Z,14.50
2023-04-07T00:45:36.409Z,13.70
2023-04-07T00:48:06.492Z,12.00
2023-04-07T00:50:35.599Z,13.30
2023-04-07T00:53:04.619Z,11.60
2023-04-07T00:55:33.724Z,13.10
2023-04-07T00:58:04.568Z,13.00
2023-04-07T01:00:37.657Z,11.80
2023-04-07T01:03:13.838Z,13.30
2023-04-07T01:05:51.218Z,12.20
2023-04-07T01:08:25.023Z,13.50
2023-04-07T01:10:57.194Z,14.00
2023-04-07T01:13:32.140Z,12.90
2023-04-07T01:16:05.259Z,11.40
2023-04-07T01:18:36.938Z,13.10
2023-04-07T01:21:11.162Z,12.30
2023-04-07T01:24:01.425Z,13.90
2023-04-07T01:26:32.903Z,15.00
2023-04-07T01:29:27.363Z,14.70
2023-04-07T01:32:00.237Z,14.00
2023-04-07T01:34:33.144Z,14.80
2023-04-07T01:37:03.981Z,13.10
2023-04-07T01:39:34.178Z,12.90
2023-04-07T01:42:06.867Z,15.00
2023-04-07T01:44:36.720Z,13.80
2023-04-07T01:47:06.099Z,14.50
2023-04-07T01:49:37.118Z,15.00
2023-04-07T01:52:07.718Z,13.70
2023-04-07T01:54:37.398Z,12.50
2023-04-07T01:57:06.334Z,14.90
2023-04-07T01:59:35.210Z,15.00
2023-04-07T02:02:04.315Z,15.10
2023-04-07T02:04:38.508Z,14.00
2023-04-07T02:07:12.381Z,13.30
2023-04-07T02:09:43.160Z,13.80
2023-04-07T02:12:15.890Z,15.80
2023-04-07T02:14:45.197Z,14.80
2023-04-07T02:17:16.428Z,14.90
2023-04-07T02:19:47.675Z,14.20
2023-04-07T02:22:17.845Z,16.10
2023-04-07T02:24:46.841Z,15.30
2023-04-07T02:27:15.767Z,12.10
2023-04-07T02:29:44.694Z,13.20
2023-04-07T02:32:13.642Z,17.30
2023-04-07T02:34:42.800Z,15.10
2023-04-07T02:37:11.836Z,15.50
2023-04-07T02:39:41.002Z,16.80
2023-04-07T02:42:10.030Z,16.60
2023-04-07T02:44:38.943Z,17.70
2023-04-07T02:47:08.190Z,14.50
2023-04-07T02:49:37.207Z,13.70
2023-04-07T02:52:06.436Z,16.30
2023-04-07T02:54:35.982Z,15.00
2023-04-07T02:57:05.261Z,16.80
2023-04-07T02:59:34.194Z,18.00
2023-04-07T03:02:03.377Z,14.30
2023-04-07T03:04:32.862Z,16.90
2023-04-07T03:07:01.732Z,16.00
2023-04-07T03:09:30.844Z,15.40
2023-04-07T03:11:59.810Z,16.80
2023-04-07T03:14:28.826Z,18.50
2023-04-07T03:16:57.976Z,15.70
2023-04-07T03:19:27.227Z,16.90
2023-04-07T03:21:56.136Z,17.30
2023-04-07T03:24:25.725Z,19.50
2023-04-07T03:26:55.573Z,15.70
2023-04-07T03:29:24.538Z,15.40
2023-04-07T03:31:53.510Z,19.20
2023-04-07T03:34:22.491Z,17.60
2023-04-07T03:36:51.499Z,18.50
2023-04-07T03:39:20.814Z,20.60
2023-04-07T03:41:49.819Z,17.00
2023-04-07T03:44:18.814Z,18.00
2023-04-07T03:46:49.946Z,15.70
2023-04-07T03:49:18.809Z,14.60
2023-04-07T03:51:47.946Z,16.80
2023-04-07T03:54:16.879Z,16.10
2023-04-07T03:56:45.899Z,16.00
2023-04-07T03:59:14.933Z,15.40
2023-04-07T04:01:43.895Z,16.10
2023-04-07T04:04:13.033Z,17.20
2023-04-07T04:06:42.205Z,18.20
2023-04-07T04:09:11.116Z,19.50
2023-04-07T04:11:40.090Z,18.30
2023-04-07T04:14:09.246Z,18.20
2023-04-07T04:16:38.188Z,19.00
2023-04-07T04:19:07.107Z,17.90
2023-04-07T04:21:36.029Z,18.00
2023-04-07T04:24:06.063Z,20.00
2023-04-07T04:26:34.991Z,20.50
2023-04-07T04:29:03.952Z,18.40
2023-04-07T04:31:33.087Z,19.60
2023-04-07T04:34:01.968Z,21.10
2023-04-07T04:36:31.054Z,18.90
2023-04-07T04:39:00.001Z,18.40
2023-04-07T04:41:28.919Z,18.50
2023-04-07T04:43:58.076Z,17.20
2023-04-07T04:46:26.990Z,17.40
2023-04-07T04:48:57.351Z,17.30
2023-04-07T04:51:26.644Z,16.70
2023-04-07T04:53:55.797Z,18.30
2023-04-07T04:56:25.141Z,19.70
2023-04-07T04:58:54.091Z,19.10
2023-04-07T05:01:23.006Z,15.60
2023-04-07T05:03:52.461Z,15.10
2023-04-07T05:06:21.568Z,19.10
2023-04-07T05:08:50.659Z,20.00
2023-04-07T05:11:21.051Z,19.20
2023-04-07T05:13:50.617Z,18.40
2023-04-07T05:16:19.895Z,20.10
2023-04-07T05:18:49.000Z,17.80
2023-04-07T05:21:19.698Z,19.40
2023-04-07T05:23:48.690Z,18.50
2023-04-07T05:26:17.774Z,20.00
2023-04-07T05:28:46.975Z,19.40
2023-04-07T05:31:15.908Z,16.60
2023-04-07T05:33:44.965Z,16.80
2023-04-07T05:36:13.986Z,18.90
2023-04-07T05:38:43.067Z,18.20
2023-04-07T05:41:12.343Z,18.20
2023-04-07T05:43:41.327Z,19.90
2023-04-07T05:46:10.345Z,17.70
2023-04-07T05:48:39.339Z,18.50
2023-04-07T05:51:08.395Z,17.00
2023-04-07T05:53:37.526Z,19.60
2023-04-07T05:56:06.947Z,23.00
2023-04-07T05:58:36.113Z,21.70
2023-04-07T06:01:05.243Z,20.90
2023-04-07T06:03:34.404Z,20.20
2023-04-07T06:06:03.752Z,20.30
2023-04-07T06:08:32.638Z,20.20
2023-04-07T06:11:01.636Z,19.20
2023-04-07T06:13:30.528Z,17.60
2023-04-07T06:15:59.592Z,20.00
2023-04-07T06:18:28.461Z,19.20
2023-04-07T06:20:57.429Z,18.80
2023-04-07T06:23:26.632Z,16.30
2023-04-07T06:25:55.944Z,17.90
2023-04-07T06:28:24.893Z,19.40
2023-04-07T06:30:54.008Z,17.70
2023-04-07T06:33:25.198Z,18.70
2023-04-07T06:35:54.285Z,17.00
2023-04-07T06:38:23.403Z,14.20
2023-04-07T06:40:52.816Z,19.60
2023-04-07T06:43:21.778Z,19.30
2023-04-07T06:45:50.813Z,15.80
2023-04-07T06:48:19.874Z,15.00
2023-04-07T06:50:50.416Z,16.30
2023-04-07T06:53:19.943Z,15.50
2023-04-07T06:55:48.932Z,18.30
2023-04-07T06:58:18.361Z,16.60
2023-04-07T07:00:47.432Z,15.90
2023-04-07T07:03:16.690Z,17.90
2023-04-07T07:05:45.765Z,14.20
2023-04-07T07:08:14.901Z,13.10
2023-04-07T07:10:44.103Z,15.00
2023-04-07T07:13:12.994Z,15.40
2023-04-07T07:15:42.623Z,15.30
2023-04-07T07:18:11.716Z,17.60
2023-04-07T07:20:40.832Z,14.70
2023-04-07T07:23:09.800Z,14.60
2023-04-07T07:25:38.839Z,13.40
2023-04-07T07:28:08.761Z,15.10
2023-04-07T07:30:41.105Z,13.20
2023-04-07T07:33:10.283Z,15.10
2023-04-07T07:35:39.856Z,15.50
2023-04-07T07:38:08.849Z,15.80
2023-04-07T07:40:37.777Z,16.00
2023-04-07T07:43:06.791Z,15.00
2023-04-07T07:45:35.916Z,13.90
2023-04-07T07:48:04.987Z,16.50
2023-04-07T07:50:33.806Z,12.80
2023-04-07T07:53:02.847Z,16.10
2023-04-07T07:55:31.757Z,14.00
2023-04-07T07:58:00.875Z,16.90
2023-04-07T08:00:30.308Z,14.50
2023-04-07T08:02:59.691Z,13.60
2023-04-07T08:05:28.731Z,12.50
2023-04-07T08:07:57.800Z,13.80
2023-04-07T08:10:26.709Z,13.30
2023-04-07T08:12:55.789Z,13.30
2023-04-07T08:15:25.070Z,14.70
2023-04-07T08:17:55.542Z,11.20
2023-04-07T08:20:25.433Z,11.30
2023-04-07T08:22:54.405Z,11.30
2023-04-07T08:25:23.453Z,8.40
2023-04-07T08:27:52.519Z,10.60
2023-04-07T08:30:21.987Z,10.80
2023-04-07T08:32:50.969Z,10.40
2023-04-07T08:35:20.397Z,7.70
2023-04-07T08:37:49.903Z,10.70
2023-04-07T08:40:18.823Z,9.40
2023-04-07T08:42:49.222Z,9.70
2023-04-07T08:45:19.501Z,9.40
2023-04-07T08:47:56.156Z,7.50
2023-04-07T08:50:27.213Z,10.90
2023-04-07T08:52:58.475Z,7.90
2023-04-07T08:55:27.721Z,8.70
2023-04-07T08:57:58.665Z,8.60
2023-04-07T09:00:29.888Z,6.60
2023-04-07T09:03:02.900Z,7.20
2023-04-07T09:05:32.603Z,7.00
2023-04-07T09:08:02.487Z,7.10
2023-04-07T09:10:31.525Z,8.30
2023-04-07T09:13:00.565Z,9.30
2023-04-07T09:15:32.528Z,7.80
2023-04-07T09:18:01.516Z,7.80
2023-04-07T09:20:57.476Z,7.60
2023-04-07T09:23:30.838Z,6.50
2023-04-07T09:26:01.258Z,7.30
2023-04-07T09:28:43.802Z,7.60
2023-04-07T09:31:12.820Z,7.10
2023-04-07T09:33:41.823Z,7.20
2023-04-07T09:36:11.856Z,8.90
2023-04-07T09:38:42.105Z,8.00
2023-04-07T09:41:13.125Z,7.90
2023-04-07T09:43:44.094Z,8.20
2023-04-07T09:46:15.316Z,8.70
2023-04-07T09:48:45.311Z,9.60
2023-04-07T09:51:16.144Z,8.90
2023-04-07T09:53:47.845Z,7.50
2023-04-07T09:56:18.330Z,7.70
2023-04-07T09:58:50.985Z,7.10
2023-04-07T10:01:21.052Z,9.20
2023-04-07T10:03:50.855Z,8.80
2023-04-07T10:06:21.303Z,7.20
2023-04-07T10:08:50.520Z,6.60
2023-04-07T10:11:20.325Z,5.30
2023-04-07T10:13:49.932Z,6.60
2023-04-07T10:16:19.885Z,7.10
2023-04-07T10:18:51.291Z,7.20
2023-04-07T10:21:20.499Z,8.50
2023-04-07T10:23:56.925Z,7.20
2023-04-07T10:26:30.678Z,7.80
2023-04-07T10:29:06.050Z,8.90
2023-04-07T10:31:35.630Z,9.50
2023-04-07T10:34:05.323Z,8.30
2023-04-07T10:36:34.849Z,8.80
2023-04-07T10:39:23.615Z,8.40
2023-04-07T10:41:52.749Z,8.10
2023-04-07T10:44:47.695Z,7.30
2023-04-07T10:47:17.057Z,8.70
2023-04-07T10:50:19.980Z,8.30
2023-04-07T10:52:51.952Z,8.30
2023-04-07T10:55:32.897Z,7.30
2023-04-07T10:58:22.049Z,9.90
2023-04-07T11:01:29.008Z,11.20
2023-04-07T11:04:01.809Z,7.40
2023-04-07T11:06:31.322Z,8.60
2023-04-07T11:09:00.208Z,9.00
2023-04-07T11:11:41.903Z,10.30
2023-04-07T11:14:11.124Z,11.70
2023-04-07T11:16:45.138Z,10.00
2023-04-07T11:19:14.039Z,8.90
2023-04-07T11:21:42.885Z,9.20
2023-04-07T11:24:31.427Z,8.00
2023-04-07T11:27:00.940Z,7.00
2023-04-07T11:29:30.663Z,8.50
2023-04-07T11:32:01.774Z,7.70
2023-04-07T11:34:32.047Z,9.60
2023-04-07T11:37:20.417Z,10.00
2023-04-07T11:39:55.009Z,8.90
2023-04-07T11:42:34.270Z,8.00
2023-04-07T11:45:04.653Z,8.00
2023-04-07T11:47:38.558Z,9.00
2023-04-07T11:50:09.328Z,9.20
2023-04-07T11:52:45.308Z,7.50
2023-04-07T11:57:51.798Z,7.10
2023-04-07T12:00:21.751Z,7.40
2023-04-07T12:02:50.832Z,7.70
2023-04-07T12:05:20.479Z,7.40
2023-04-07T12:07:55.929Z,9.20
2023-04-07T12:10:26.390Z,7.80
2023-04-07T12:12:56.986Z,8.90
2023-04-07T12:15:28.054Z,9.80
2023-04-07T12:17:57.140Z,8.10
2023-04-07T12:20:27.026Z,7.90
2023-04-07T12:22:56.057Z,8.50
2023-04-07T12:25:25.232Z,8.20
2023-04-07T12:27:54.200Z,8.00
2023-04-07T12:30:23.313Z,9.00
2023-04-07T12:32:53.064Z,11.10
2023-04-07T12:35:22.323Z,9.40
2023-04-07T12:37:52.523Z,10.60
2023-04-07T12:40:21.742Z,9.70
2023-04-07T12:42:50.787Z,8.90
2023-04-07T12:45:19.920Z,9.40
2023-04-07T12:47:48.924Z,9.20
2023-04-07T12:50:18.109Z,9.30
2023-04-07T12:52:47.911Z,10.30
2023-04-07T12:55:16.957Z,10.20
2023-04-07T12:57:46.827Z,11.30
2023-04-07T13:00:16.281Z,10.20
2023-04-07T13:02:45.379Z,10.70
2023-04-07T13:05:14.509Z,10.90
2023-04-07T13:07:43.350Z,11.10
2023-04-07T13:10:12.252Z,12.70
2023-04-07T13:12:41.846Z,9.70
2023-04-07T13:15:11.058Z,11.30
2023-04-07T13:17:40.126Z,12.70
2023-04-07T13:20:11.049Z,11.20
2023-04-07T13:22:49.324Z,14.00
2023-04-07T13:25:24.668Z,12.60
2023-04-07T13:27:53.673Z,13.40
2023-04-07T13:30:23.016Z,12.00
2023-04-07T13:32:52.757Z,11.90
2023-04-07T13:35:21.976Z,13.70
2023-04-07T13:37:50.990Z,11.90
2023-04-07T13:40:20.316Z,9.60
2023-04-07T13:42:49.184Z,9.20
2023-04-07T13:45:18.267Z,10.80
2023-04-07T13:47:47.210Z,12.00
2023-04-07T13:50:16.271Z,10.60
2023-04-07T13:52:47.720Z,10.50
2023-04-07T13:55:19.692Z,9.50
2023-04-07T13:57:48.546Z,9.50
2023-04-07T14:00:19.079Z,11.30
2023-04-07T14:02:49.188Z,9.40
2023-04-07T14:05:18.469Z,9.30
2023-04-07T14:07:48.014Z,8.30
2023-04-07T14:10:17.156Z,9.30
2023-04-07T14:12:46.551Z,9.10
2023-04-07T14:15:17.051Z,8.10
2023-04-07T14:17:47.657Z,10.40
2023-04-07T14:20:16.928Z,10.60
2023-04-07T14:22:45.902Z,9.50
2023-04-07T14:25:15.005Z,10.10
2023-04-07T14:27:44.256Z,10.80
2023-04-07T14:30:14.836Z,9.20
2023-04-07T14:32:43.851Z,10.30
2023-04-07T14:35:12.920Z,11.10
2023-04-07T14:37:41.886Z,11.20
2023-04-07T14:40:11.992Z,10.60
2023-04-07T14:42:41.163Z,10.10
2023-04-07T14:45:12.272Z,11.20
2023-04-07T14:47:41.370Z,10.70
2023-04-07T14:50:12.020Z,14.00
2023-04-07T14:52:40.981Z,15.30
2023-04-07T14:55:10.437Z,12.30
2023-04-07T14:57:39.705Z,11.70
2023-04-07T15:00:11.330Z,11.10
2023-04-07T15:02:40.520Z,11.60
2023-04-07T15:05:11.045Z,13.40
2023-04-07T15:07:40.099Z,11.60
2023-04-07T15:10:10.824Z,12.50
2023-04-07T15:12:39.669Z,13.40
2023-04-07T15:15:09.700Z,12.60
2023-04-07T15:17:44.619Z,13.90
2023-04-07T15:20:14.124Z,13.30
2023-04-07T15:22:43.119Z,12.10
2023-04-07T15:25:12.187Z,14.30
2023-04-07T15:27:40.983Z,11.80
2023-04-07T15:30:11.545Z,12.70
2023-04-07T15:32:40.595Z,13.70
2023-04-07T15:35:10.252Z,13.40
2023-04-07T15:37:39.300Z,14.00
2023-04-07T15:40:10.473Z,12.10
2023-04-07T15:42:41.217Z,12.30
2023-04-07T15:45:12.383Z,14.20
2023-04-07T15:47:41.318Z,13.20
2023-04-07T15:50:11.728Z,12.20
2023-04-07T15:52:40.804Z,14.10
2023-04-07T15:55:11.413Z,13.30
2023-04-07T15:57:40.360Z,11.70
2023-04-07T16:00:11.156Z,15.20
2023-04-07T16:02:40.252Z,14.50
2023-04-07T16:05:09.958Z,15.60
2023-04-07T16:07:39.050Z,15.00
2023-04-07T16:10:11.764Z,15.00
2023-04-07T16:12:41.238Z,14.80
2023-04-07T16:15:11.244Z,17.40
2023-04-07T16:17:42.006Z,14.30
2023-04-07T16:20:14.076Z,13.10
2023-04-07T16:22:45.120Z,13.60
2023-04-07T16:25:15.034Z,15.70
2023-04-07T16:27:44.590Z,14.60
2023-04-07T16:30:15.723Z,16.70
2023-04-07T16:32:46.200Z,15.30
2023-04-07T16:35:16.167Z,15.40
2023-04-07T16:37:46.128Z,14.90
2023-04-07T16:40:15.792Z,16.20
2023-04-07T16:42:46.170Z,16.60
2023-04-07T16:45:15.420Z,15.90
2023-04-07T16:47:44.704Z,18.50
2023-04-07T16:50:13.751Z,18.30
2023-04-07T16:52:42.693Z,14.80
2023-04-07T16:55:11.915Z,16.00
2023-04-07T16:57:40.912Z,16.70
2023-04-07T17:00:11.958Z,17.70
2023-04-07T17:02:41.128Z,18.90
2023-04-07T17:05:11.024Z,17.20
2023-04-07T17:07:40.034Z,17.80
2023-04-07T17:10:10.963Z,15.70
2023-04-07T17:12:39.988Z,15.70
2023-04-07T17:15:10.522Z,14.10
2023-04-07T17:17:39.762Z,15.30
2023-04-07T17:20:10.948Z,15.80
2023-04-07T17:22:39.881Z,15.30
2023-04-07T17:25:11.226Z,16.00
2023-04-07T17:27:40.517Z,18.90
2023-04-07T17:30:11.411Z,15.60
2023-04-07T17:32:40.911Z,17.80
2023-04-07T17:35:10.549Z,17.70
2023-04-07T17:37:39.464Z,16.50
2023-04-07T17:40:10.855Z,17.70
2023-04-07T17:42:40.617Z,17.70
2023-04-07T17:45:11.356Z,17.10
2023-04-07T17:47:40.743Z,15.40
2023-04-07T17:50:11.545Z,17.50
2023-04-07T17:52:40.588Z,19.70
2023-04-07T17:55:11.800Z,18.20
2023-04-07T17:57:41.457Z,17.30
2023-04-07T18:00:11.905Z,17.20
2023-04-07T18:02:41.084Z,17.40
2023-04-07T18:05:13.835Z,16.80
2023-04-07T18:07:42.761Z,14.90
2023-04-07T18:10:12.550Z,16.80
2023-04-07T18:12:41.498Z,15.00
2023-04-07T18:15:11.472Z,16.50
2023-04-07T18:17:41.974Z,15.50
2023-04-07T18:20:12.578Z,16.20
2023-04-07T18:22:41.915Z,17.80
2023-04-07T18:25:11.747Z,15.90
2023-04-07T18:27:40.796Z,17.70
2023-04-07T18:30:11.927Z,14.40
2023-04-07T18:32:40.933Z,14.30
2023-04-07T18:35:10.535Z,16.70
2023-04-07T18:37:39.448Z,17.40
2023-04-07T18:40:10.360Z,14.30
2023-04-07T18:42:39.415Z,17.10
2023-04-07T18:45:10.312Z,16.80
2023-04-07T18:47:39.357Z,18.70
2023-04-07T18:50:10.217Z,13.10
2023-04-07T18:52:39.241Z,19.40
2023-04-07T18:55:10.390Z,18.40
2023-04-07T18:57:39.706Z,16.50
2023-04-07T19:00:10.499Z,16.70
2023-04-07T19:02:43.656Z,16.40
2023-04-07T19:05:13.535Z,19.90
2023-04-07T19:07:42.439Z,15.40
2023-04-07T19:10:11.418Z,17.50
2023-04-07T19:12:40.725Z,16.90
2023-04-07T19:15:11.381Z,15.30
2023-04-07T19:17:40.915Z,16.60
2023-04-07T19:20:11.095Z,16.20
2023-04-07T19:22:40.114Z,18.00
2023-04-07T19:25:10.274Z,17.10
2023-04-07T19:27:39.405Z,15.60
2023-04-07T19:30:10.856Z,15.70
2023-04-07T19:32:39.922Z,17.80
2023-04-07T19:35:10.654Z,17.90
2023-04-07T19:37:39.861Z,17.10
2023-04-07T19:40:10.416Z,17.30
2023-04-07T19:42:39.464Z,18.20
2023-04-07T19:45:10.194Z,19.10
2023-04-07T19:47:39.326Z,21.70
2023-04-07T19:50:11.180Z,18.70
2023-04-07T19:52:42.533Z,20.70
2023-04-07T19:55:13.457Z,18.30
2023-04-07T19:57:42.570Z,25.20
2023-04-07T20:00:13.087Z,22.10
2023-04-07T20:02:42.370Z,22.70
2023-04-07T20:05:11.471Z,20.10
2023-04-07T20:07:40.553Z,23.20
2023-04-07T20:10:10.678Z,19.10
2023-04-07T20:12:39.570Z,22.60
2023-04-07T20:15:10.765Z,19.90
2023-04-07T20:17:39.914Z,21.30
2023-04-07T20:20:10.785Z,19.00
2023-04-07T20:22:41.996Z,21.30
2023-04-07T20:25:11.452Z,20.30
2023-04-07T20:27:40.437Z,19.10
2023-04-07T20:30:10.552Z,20.50
2023-04-07T20:32:39.670Z,19.60
2023-04-07T20:35:11.232Z,20.20
2023-04-07T20:37:40.339Z,23.00
2023-04-07T20:40:11.653Z,20.70
2023-04-07T20:42:40.590Z,20.70
2023-04-07T20:45:11.879Z,24.20
2023-04-07T20:47:40.947Z,22.00
2023-04-07T20:50:10.887Z,20.10
2023-04-07T20:52:42.836Z,22.80
2023-04-07T20:55:12.254Z,20.80
2023-04-07T20:57:41.465Z,20.90
2023-04-07T21:00:11.512Z,21.00
2023-04-07T21:02:41.263Z,19.50
2023-04-07T21:05:11.100Z,22.70
2023-04-07T21:07:39.985Z,20.60
2023-04-07T21:10:11.676Z,20.60
2023-04-07T21:12:41.142Z,24.50
2023-04-07T21:15:11.326Z,23.10
2023-04-07T21:17:40.522Z,18.60
2023-04-07T21:20:11.536Z,20.90
2023-04-07T21:22:40.507Z,27.50
2023-04-07T21:25:10.594Z,21.90
2023-04-07T21:27:39.862Z,18.90
2023-04-07T21:30:13.227Z,22.30
2023-04-07T21:32:44.856Z,21.90
2023-04-07T21:35:13.956Z,21.20
2023-04-07T21:37:42.990Z,20.00
2023-04-07T21:40:12.784Z,21.90
2023-04-07T21:42:41.932Z,21.90
2023-04-07T21:45:12.634Z,22.30
2023-04-07T21:47:41.808Z,22.40
2023-04-07T21:50:12.961Z,21.80
2023-04-07T21:52:42.061Z,18.70
2023-04-07T21:55:11.420Z,22.50
2023-04-07T21:57:40.400Z,20.00
2023-04-07T22:00:12.162Z,23.10
2023-04-07T22:02:41.184Z,23.10
2023-04-07T22:05:11.149Z,21.60
2023-04-07T22:07:40.189Z,25.10
2023-04-07T22:10:10.997Z,23.50
2023-04-07T22:12:40.397Z,19.00
2023-04-07T22:15:12.560Z,21.10
2023-04-07T22:17:41.495Z,20.90
2023-04-07T22:20:12.274Z,20.80
2023-04-07T22:22:42.553Z,21.30
2023-04-07T22:25:11.492Z,22.00
2023-04-07T22:27:40.610Z,20.20
2023-04-07T22:30:11.753Z,23.40
2023-04-07T22:32:40.954Z,21.90
2023-04-07T22:35:10.681Z,21.70
2023-04-07T22:37:39.688Z,20.00
2023-04-07T22:40:10.500Z,23.30
2023-04-07T22:42:39.795Z,23.90
2023-04-07T22:45:10.422Z,26.10
2023-04-07T22:47:40.116Z,25.30
2023-04-07T22:50:11.178Z,22.40
2023-04-07T22:52:40.143Z,22.90
2023-04-07T22:55:10.508Z,22.80
2023-04-07T22:57:39.592Z,22.70
2023-04-07T23:00:11.925Z,21.60
2023-04-07T23:02:41.896Z,20.40
2023-04-07T23:05:11.326Z,22.40
2023-04-07T23:07:40.491Z,21.80
2023-04-07T23:10:10.785Z,25.50
2023-04-07T23:12:39.728Z,22.00
2023-04-07T23:15:10.578Z,23.90
2023-04-07T23:17:39.844Z,21.60
2023-04-07T23:20:11.147Z,21.80
2023-04-07T23:22:40.589Z,24.30
2023-04-07T23:25:10.550Z,25.00
2023-04-07T23:27:39.857Z,22.80
2023-04-07T23:30:11.075Z,21.20
2023-04-07T23:32:40.171Z,18.40
2023-04-07T23:35:10.884Z,26.30
2023-04-07T23:37:39.950Z,23.40
2023-04-07T23:40:11.909Z,24.70
2023-04-07T23:42:41.388Z,25.40
2023-04-07T23:45:11.596Z,24.90
2023-04-07T23:47:40.688Z,23.20
2023-04-07T23:50:11.365Z,26.00
2023-04-07T23:52:40.408Z,23.90
2023-04-07T23:55:10.586Z,27.20
2023-04-07T23:57:39.448Z,25.10
